createdAt,value
2018-09-08T00:02:25.110Z,100136.54
2018-09-08T00:04:52.642Z,100140.54
2018-09-08T00:07:25.203Z,100134.34
2018-09-08T00:09:53.156Z,100138.34
2018-09-08T00:12:20.675Z,100134.96
2018-09-08T00:14:47.141Z,100128.41
2018-09-08T00:17:20.457Z,100125.98
2018-09-08T00:19:53.176Z,100133.26
2018-09-08T00:22:25.694Z,100135.09
2018-09-08T00:24:58.559Z,100136.03
2018-09-08T00:27:31.131Z,100134.34
2018-09-08T00:29:58.780Z,100143.09
2018-09-08T00:32:26.865Z,100135.92
2018-09-08T00:34:54.431Z,100138.95
2018-09-08T00:37:22.097Z,100137.50
2018-09-08T00:39:52.612Z,100139.55
2018-09-08T00:42:20.665Z,100135.69
2018-09-08T00:44:48.354Z,100138.61
2018-09-08T00:47:16.212Z,100137.88
2018-09-08T00:49:44.140Z,100137.26
2018-09-08T00:52:11.685Z,100138.33
2018-09-08T00:54:39.319Z,100139.08
2018-09-08T00:57:07.196Z,100134.58
2018-09-08T00:59:34.846Z,100135.80
2018-09-08T01:02:02.469Z,100133.49
2018-09-08T01:04:30.033Z,100138.47
2018-09-08T01:06:58.969Z,100136.27
2018-09-08T01:09:26.511Z,100135.09
2018-09-08T01:11:54.043Z,100141.86
2018-09-08T01:14:21.616Z,100140.53
2018-09-08T01:16:49.611Z,100145.97
2018-09-08T01:19:17.290Z,100147.42
2018-09-08T01:21:44.838Z,100148.39
2018-09-08T01:24:12.377Z,100140.55
2018-09-08T01:26:41.094Z,100145.48
2018-09-08T01:29:08.631Z,100145.87
2018-09-08T01:31:36.509Z,100147.20
2018-09-08T01:34:04.043Z,100154.59
2018-09-08T01:36:32.229Z,100156.02
2018-09-08T01:38:59.765Z,100163.30
2018-09-08T01:41:27.651Z,100162.92
2018-09-08T01:43:55.239Z,100162.00
2018-09-08T01:46:23.473Z,100157.62
2018-09-08T01:48:50.996Z,100157.25
2018-09-08T01:51:18.964Z,100154.83
2018-09-08T01:53:46.498Z,100158.22
2018-09-08T01:56:14.031Z,100161.23
2018-09-08T01:58:41.631Z,100160.88
2018-09-08T02:01:10.718Z,100158.72
2018-09-08T02:03:38.238Z,100171.20
2018-09-08T02:06:05.755Z,100171.67
2018-09-08T02:08:33.311Z,100167.31
2018-09-08T02:11:00.859Z,100161.61
2018-09-08T02:13:28.382Z,100169.15
2018-09-08T02:15:57.576Z,100167.45
2018-09-08T02:18:28.809Z,100167.06
2018-09-08T02:20:56.304Z,100165.98
2018-09-08T02:23:24.142Z,100162.96
2018-09-08T02:25:51.667Z,100168.41
2018-09-08T02:28:22.735Z,100169.03
2018-09-08T02:30:51.775Z,100162.98
2018-09-08T02:33:19.271Z,100159.17
2018-09-08T02:35:47.049Z,100162.45
2018-09-08T02:38:14.563Z,100164.88
2018-09-08T02:40:42.493Z,100161.23
2018-09-08T02:43:10.090Z,100164.15
2018-09-08T02:45:37.665Z,100163.09
2018-09-08T02:48:06.491Z,100168.78
2018-09-08T02:50:35.150Z,100166.36
2018-09-08T02:53:04.283Z,100157.74
2018-09-08T02:55:33.748Z,100163.68
2018-09-08T02:58:02.317Z,100158.12
2018-09-08T03:00:30.418Z,100163.19
2018-09-08T03:02:57.939Z,100160.88
2018-09-08T03:05:25.775Z,100166.84
2018-09-08T03:07:53.322Z,100170.70
2018-09-08T03:10:24.601Z,100164.30
2018-09-08T03:12:53.247Z,100165.39
2018-09-08T03:15:21.157Z,100172.30
2018-09-08T03:17:48.709Z,100178.35
2018-09-08T03:20:16.215Z,100177.27
2018-09-08T03:22:43.736Z,100176.17
2018-09-08T03:25:13.171Z,100180.17
2018-09-08T03:27:40.710Z,100179.20
2018-09-08T03:30:08.247Z,100189.01
2018-09-08T03:32:35.766Z,100185.87
2018-09-08T03:35:03.698Z,100194.23
2018-09-08T03:37:31.243Z,100188.89
2018-09-08T03:39:58.768Z,100187.56
2018-09-08T03:42:27.191Z,100186.48
2018-09-08T03:44:55.119Z,100189.73
2018-09-08T03:47:22.671Z,100190.72
2018-09-08T03:49:50.201Z,100187.58
2018-09-08T03:52:17.730Z,100191.22
2018-09-08T03:54:45.530Z,100193.88
2018-09-08T03:57:13.059Z,100187.69
2018-09-08T03:59:40.619Z,100192.66
2018-09-08T04:02:08.127Z,100195.80
2018-09-08T04:04:36.051Z,100197.28
2018-09-08T04:07:03.607Z,100193.75
2018-09-08T04:09:31.116Z,100204.56
2018-09-08T04:11:58.979Z,100201.15
2018-09-08T04:14:26.486Z,100206.84
2018-09-08T04:16:54.980Z,100205.77
2018-09-08T04:19:23.012Z,100201.02
2018-09-08T04:21:50.740Z,100203.80
2018-09-08T04:24:18.309Z,100201.74
2018-09-08T04:26:45.845Z,100200.52
2018-09-08T04:29:13.378Z,100207.30
2018-09-08T04:31:42.120Z,100202.58
2018-09-08T04:34:14.220Z,100202.69
2018-09-08T04:36:42.138Z,100207.66
2018-09-08T04:39:10.513Z,100208.53
2018-09-08T04:41:38.173Z,100208.17
2018-09-08T04:44:05.683Z,100209.25
2018-09-08T04:46:33.755Z,100207.05
2018-09-08T04:49:01.352Z,100207.56
2018-09-08T04:51:28.911Z,100203.20
2018-09-08T04:53:56.448Z,100204.03
2018-09-08T04:56:24.351Z,100205.87
2018-09-08T04:58:51.910Z,100203.20
2018-09-08T05:01:19.423Z,100207.20
2018-09-08T05:03:46.959Z,100207.05
2018-09-08T05:06:14.787Z,100214.95
2018-09-08T05:08:42.308Z,100211.30
2018-09-08T05:11:09.828Z,100218.33
2018-09-08T05:13:38.729Z,100217.86
2018-09-08T05:16:06.251Z,100218.84
2018-09-08T05:18:35.718Z,100221.86
2018-09-08T05:21:03.621Z,100217.75
2018-09-08T05:23:31.987Z,100217.14
2018-09-08T05:25:59.493Z,100222.72
2018-09-08T05:28:27.061Z,100222.11
2018-09-08T05:30:54.752Z,100224.66
2018-09-08T05:33:23.443Z,100228.44
2018-09-08T05:35:51.796Z,100227.24
2018-09-08T05:38:19.343Z,100234.02
2018-09-08T05:40:47.498Z,100236.31
2018-09-08T05:43:16.027Z,100236.80
2018-09-08T05:45:44.699Z,100236.53
2018-09-08T05:48:12.564Z,100242.61
2018-09-08T05:50:40.079Z,100252.30
2018-09-08T05:53:07.590Z,100258.01
2018-09-08T05:55:35.106Z,100260.41
2018-09-08T05:58:02.656Z,100261.24
2018-09-08T06:00:31.356Z,100256.12
2018-09-08T06:03:00.155Z,100261.84
2018-09-08T06:05:27.694Z,100253.18
2018-09-08T06:07:55.232Z,100262.86
2018-09-08T06:10:24.132Z,100245.00
2018-09-08T06:12:52.067Z,100253.85
2018-09-08T06:15:21.266Z,100257.83
2018-09-08T06:17:49.166Z,100254.66
2018-09-08T06:20:16.700Z,100259.38
2018-09-08T06:22:44.265Z,100254.47
2018-09-08T06:25:12.230Z,100257.97
2018-09-08T06:27:40.425Z,100258.33
2018-09-08T06:30:07.937Z,100256.48
2018-09-08T06:32:35.767Z,100262.65
2018-09-08T06:35:03.360Z,100256.44
2018-09-08T06:37:30.898Z,100257.22
2018-09-08T06:39:58.766Z,100259.73
2018-09-08T06:42:26.325Z,100261.06
2018-09-08T06:44:53.883Z,100260.73
2018-09-08T06:47:21.745Z,100258.02
2018-09-08T06:49:49.294Z,100268.42
2018-09-08T06:52:16.871Z,100270.58
2018-09-08T06:54:44.823Z,100267.73
2018-09-08T06:57:12.356Z,100270.23
2018-09-08T06:59:39.878Z,100270.41
2018-09-08T07:02:07.794Z,100269.23
2018-09-08T07:04:36.291Z,100268.55
2018-09-08T07:07:03.909Z,100266.20
2018-09-08T07:09:31.924Z,100263.81
2018-09-08T07:11:59.526Z,100272.55
2018-09-08T07:14:27.189Z,100268.12
2018-09-08T07:16:55.411Z,100263.91
2018-09-08T07:19:24.701Z,100264.41
2018-09-08T07:21:52.446Z,100260.77
2018-09-08T07:24:22.136Z,100265.51
2018-09-08T07:26:49.694Z,100262.04
2018-09-08T07:29:18.177Z,100262.91
2018-09-08T07:31:46.098Z,100264.39
2018-09-08T07:34:13.634Z,100260.16
2018-09-08T07:36:41.142Z,100264.66
2018-09-08T07:39:09.922Z,100267.13
2018-09-08T07:41:37.446Z,100269.08
2018-09-08T07:44:05.677Z,100271.89
2018-09-08T07:46:34.142Z,100279.96
2018-09-08T07:49:01.718Z,100275.50
2018-09-08T07:51:29.247Z,100276.75
2018-09-08T07:53:57.240Z,100277.31
2018-09-08T07:56:24.767Z,100279.03
2018-09-08T07:58:52.855Z,100283.10
2018-09-08T08:01:21.459Z,100286.20
2018-09-08T08:03:49.895Z,100286.33
2018-09-08T08:06:18.493Z,100280.55
2018-09-08T08:11:19.675Z,100285.73
2018-09-08T08:13:48.456Z,100285.63
2018-09-08T08:16:16.942Z,100281.21
2018-09-08T08:18:44.454Z,100290.55
2018-09-08T08:21:14.564Z,100293.88
2018-09-08T08:23:42.493Z,100292.32
2018-09-08T08:26:10.102Z,100299.65
2018-09-08T08:28:38.341Z,100297.84
2018-09-08T08:31:07.657Z,100306.46
2018-09-08T08:33:35.259Z,100304.17
2018-09-08T08:36:03.006Z,100298.68
2018-09-08T08:38:31.106Z,100297.02
2018-09-08T08:40:59.254Z,100302.00
2018-09-08T08:43:26.779Z,100302.81
2018-09-08T08:45:55.725Z,100301.74
2018-09-08T08:48:23.276Z,100306.53
2018-09-08T08:50:52.386Z,100305.45
2018-09-08T08:53:21.332Z,100306.86
2018-09-08T08:55:49.855Z,100305.29
2018-09-08T08:58:17.424Z,100301.12
2018-09-08T09:00:45.378Z,100310.45
2018-09-08T09:03:14.451Z,100312.38
2018-09-08T09:05:41.994Z,100314.08
2018-09-08T09:08:09.877Z,100319.50
2018-09-08T09:10:38.036Z,100318.54
2018-09-08T09:13:05.768Z,100313.50
2018-09-08T09:15:34.691Z,100307.09
2018-09-08T09:18:02.014Z,100314.16
2018-09-08T09:20:29.540Z,100313.53
2018-09-08T09:22:57.550Z,100312.72
2018-09-08T09:25:25.900Z,100309.09
2018-09-08T09:27:53.594Z,100312.70
2018-09-08T09:30:24.674Z,100317.33
2018-09-08T09:32:54.642Z,100312.88
2018-09-08T09:35:25.909Z,100318.33
2018-09-08T09:37:53.485Z,100316.99
2018-09-08T09:40:22.082Z,100315.33
2018-09-08T09:42:50.040Z,100317.87
2018-09-08T09:45:17.587Z,100318.03
2018-09-08T09:47:45.124Z,100323.06
2018-09-08T09:50:13.812Z,100316.14
2018-09-08T09:52:42.021Z,100299.34
2018-09-08T09:55:09.687Z,100302.22
2018-09-08T09:57:39.324Z,100298.13
2018-09-08T10:00:09.155Z,100306.25
2018-09-08T10:02:45.770Z,100298.52
2018-09-08T10:05:14.845Z,100296.58
2018-09-08T10:07:42.466Z,100300.80
2018-09-08T10:10:10.501Z,100294.45
2018-09-08T10:12:38.754Z,100297.83
2018-09-08T10:15:07.182Z,100309.51
2018-09-08T10:17:34.780Z,100305.02
2018-09-08T10:20:03.763Z,100301.33
2018-09-08T10:22:31.786Z,100299.94
2018-09-08T10:24:59.336Z,100297.10
2018-09-08T10:27:28.377Z,100289.34
2018-09-08T10:29:57.662Z,100293.93
2018-09-08T10:32:25.439Z,100298.44
2018-09-08T10:34:53.477Z,100301.64
2018-09-08T10:37:21.231Z,100303.56
2018-09-08T10:39:48.821Z,100312.63
2018-09-08T10:42:16.665Z,100308.01
2018-09-08T10:44:44.283Z,100304.84
2018-09-08T10:47:12.942Z,100306.26
2018-09-08T10:49:40.984Z,100312.56
2018-09-08T10:52:08.521Z,100305.30
2018-09-08T10:54:36.983Z,100306.21
2018-09-08T10:57:04.862Z,100302.72
2018-09-08T10:59:32.373Z,100298.88
2018-09-08T11:02:01.162Z,100303.83
2018-09-08T11:04:29.052Z,100301.17
2018-09-08T11:06:56.567Z,100308.56
2018-09-08T11:09:24.868Z,100290.75
2018-09-08T11:11:52.844Z,100302.68
2018-09-08T11:14:20.415Z,100294.23
2018-09-08T11:16:51.119Z,100289.20
2018-09-08T11:19:21.220Z,100286.42
2018-09-08T11:21:49.749Z,100290.70
2018-09-08T11:24:17.337Z,100282.01
2018-09-08T11:26:45.235Z,100286.39
2018-09-08T11:29:16.839Z,100278.37
2018-09-08T11:31:44.527Z,100279.98
2018-09-08T11:34:12.414Z,100284.06
2018-09-08T11:36:40.687Z,100280.61
2018-09-08T11:39:09.639Z,100284.48
2018-09-08T11:41:38.973Z,100289.14
2018-09-08T11:44:07.350Z,100278.83
2018-09-08T11:46:36.403Z,100265.27
2018-09-08T11:49:05.067Z,100271.63
2018-09-08T11:51:36.522Z,100275.61
2018-09-08T11:54:04.034Z,100269.98
2018-09-08T11:56:34.580Z,100270.53
2018-09-08T11:59:02.120Z,100269.45
2018-09-08T12:01:29.690Z,100274.00
2018-09-08T12:04:00.248Z,100275.37
2018-09-08T12:06:32.421Z,100270.36
2018-09-08T12:09:00.667Z,100274.20
2018-09-08T12:11:28.543Z,100276.34
2018-09-08T12:13:57.192Z,100275.36
2018-09-08T12:16:24.771Z,100272.06
2018-09-08T12:18:55.585Z,100278.94
2018-09-08T12:21:23.829Z,100271.48
2018-09-08T12:23:51.343Z,100284.53
2018-09-08T12:26:19.534Z,100271.21
2018-09-08T12:28:47.106Z,100264.89
2018-09-08T12:31:14.711Z,100270.45
2018-09-08T12:33:43.719Z,100273.39
2018-09-08T12:36:12.201Z,100274.20
2018-09-08T12:38:39.735Z,100262.82
2018-09-08T12:41:07.753Z,100260.97
2018-09-08T12:43:36.081Z,100262.01
2018-09-08T12:46:04.139Z,100262.42
2018-09-08T12:48:32.456Z,100251.67
2018-09-08T12:50:59.993Z,100249.45
2018-09-08T12:53:28.606Z,100247.53
2018-09-08T12:55:57.475Z,100249.80
2018-09-08T12:58:25.114Z,100253.00
2018-09-08T13:00:52.663Z,100248.25
2018-09-08T13:03:21.650Z,100247.24
2018-09-08T13:05:49.221Z,100244.31
2018-09-08T13:08:16.759Z,100241.99
2018-09-08T13:10:47.116Z,100236.28
2018-09-08T13:13:15.250Z,100227.77
2018-09-08T13:15:42.788Z,100227.84
2018-09-08T13:18:10.659Z,100222.67
2018-09-08T13:20:38.248Z,100226.38
2018-09-08T13:23:07.038Z,100219.44
2018-09-08T13:25:36.629Z,100219.31
2018-09-08T13:28:06.171Z,100215.15
2018-09-08T13:30:33.743Z,100217.37
2018-09-08T13:33:02.778Z,100220.75
2018-09-08T13:38:04.293Z,100208.61
2018-09-08T13:40:33.957Z,100220.98
2018-09-08T13:43:01.927Z,100231.13
2018-09-08T13:45:30.065Z,100226.63
2018-09-08T13:47:58.449Z,100223.91
2018-09-08T13:50:26.122Z,100220.91
2018-09-08T13:52:54.701Z,100216.00
2018-09-08T13:55:23.426Z,100222.70
2018-09-08T13:57:52.111Z,100223.55
2018-09-08T14:00:20.687Z,100223.16
2018-09-08T14:02:49.367Z,100222.84
2018-09-08T14:05:17.576Z,100226.13
2018-09-08T14:07:53.023Z,100225.28
2018-09-08T14:10:20.887Z,100230.97
2018-09-08T14:12:49.239Z,100229.58
2018-09-08T14:15:16.829Z,100228.57
2018-09-08T14:17:44.798Z,100228.88
2018-09-08T14:20:12.322Z,100225.86
2018-09-08T14:22:41.629Z,100227.87
2018-09-08T14:25:10.910Z,100234.55
2018-09-08T14:27:39.684Z,100237.86
2018-09-08T14:30:10.178Z,100236.23
2018-09-08T14:32:38.674Z,100230.06
2018-09-08T14:35:06.287Z,100234.13
2018-09-08T14:37:34.350Z,100237.81
2018-09-08T14:40:03.759Z,100240.47
2018-09-08T14:42:31.394Z,100239.33
2018-09-08T14:45:00.091Z,100237.91
2018-09-08T14:47:28.092Z,100231.08
2018-09-08T14:49:57.978Z,100227.02
2018-09-08T14:52:25.523Z,100245.59
2018-09-08T14:54:53.446Z,100248.98
2018-09-08T14:57:21.789Z,100248.30
2018-09-08T14:59:52.031Z,100244.52
2018-09-08T15:02:21.872Z,100235.52
2018-09-08T15:04:49.531Z,100232.11
2018-09-08T15:07:16.970Z,100229.91
2018-09-08T15:09:46.043Z,100242.27
2018-09-08T15:12:13.570Z,100240.04
2018-09-08T15:14:41.100Z,100239.51
2018-09-08T15:17:08.990Z,100241.92
2018-09-08T15:19:36.516Z,100238.23
2018-09-08T15:22:06.813Z,100233.70
2018-09-08T15:24:34.931Z,100225.64
2018-09-08T15:27:03.378Z,100226.91
2018-09-08T15:29:31.750Z,100226.43
2018-09-08T15:32:04.555Z,100217.14
2018-09-08T15:34:33.320Z,100223.34
2018-09-08T15:37:01.696Z,100228.68
2018-09-08T15:39:29.531Z,100233.14
2018-09-08T15:41:58.030Z,100231.70
2018-09-08T15:44:27.256Z,100231.77
2018-09-08T15:46:55.431Z,100235.25
2018-09-08T15:49:23.271Z,100231.41
2018-09-08T15:51:51.139Z,100218.58
2018-09-08T15:54:18.979Z,100208.55
2018-09-08T15:56:47.107Z,100205.88
2018-09-08T15:59:14.894Z,100204.51
2018-09-08T16:01:42.511Z,100220.56
2018-09-08T16:04:10.079Z,100221.91
2018-09-08T16:06:39.119Z,100224.00
2018-09-08T16:09:06.664Z,100222.37
2018-09-08T16:11:34.942Z,100221.23
2018-09-08T16:14:03.199Z,100213.36
2018-09-08T16:16:30.759Z,100207.16
2018-09-08T16:18:58.342Z,100211.09
2018-09-08T16:21:26.428Z,100211.32
2018-09-08T16:23:53.967Z,100219.70
2018-09-08T16:26:22.530Z,100222.27
2018-09-08T16:28:50.502Z,100215.38
2018-09-08T16:31:18.077Z,100218.30
2018-09-08T16:33:45.859Z,100226.95
2018-09-08T16:36:13.727Z,100225.77
2018-09-08T16:38:41.440Z,100217.20
2018-09-08T16:41:10.231Z,100220.28
2018-09-08T16:43:38.139Z,100225.73
2018-09-08T16:46:06.973Z,100225.77
2018-09-08T16:48:34.584Z,100226.44
2018-09-08T16:51:03.519Z,100233.55
2018-09-08T16:53:31.661Z,100232.56
2018-09-08T16:56:01.546Z,100234.44
2018-09-08T16:58:30.130Z,100229.59
2018-09-08T17:00:57.714Z,100219.80
2018-09-08T17:03:25.268Z,100225.20
2018-09-08T17:05:53.409Z,100227.75
2018-09-08T17:08:21.727Z,100230.64
2018-09-08T17:10:50.335Z,100236.73
2018-09-08T17:13:18.302Z,100236.05
2018-09-08T17:15:46.690Z,100229.16
2018-09-08T17:18:14.486Z,100224.27
2018-09-08T17:20:43.127Z,100219.20
2018-09-08T17:23:10.738Z,100223.41
2018-09-08T17:25:38.393Z,100216.47
2018-09-08T17:28:06.347Z,100220.17
2018-09-08T17:30:37.436Z,100227.09
2018-09-08T17:33:06.305Z,100227.94
2018-09-08T17:35:34.911Z,100232.66
2018-09-08T17:38:02.514Z,100235.70
2018-09-08T17:40:30.986Z,100239.23
2018-09-08T17:42:59.182Z,100235.69
2018-09-08T17:45:26.831Z,100239.72
2018-09-08T17:47:54.373Z,100227.59
2018-09-08T17:50:22.411Z,100235.17
2018-09-08T17:52:51.458Z,100223.20
2018-09-08T17:55:20.399Z,100222.16
2018-09-08T17:57:50.557Z,100214.57
2018-09-08T18:00:18.913Z,100226.19
2018-09-08T18:02:46.475Z,100219.46
2018-09-08T18:05:14.330Z,100217.26
2018-09-08T18:07:42.550Z,100231.25
2018-09-08T18:10:10.580Z,100231.70
2018-09-08T18:12:39.240Z,100240.94
2018-09-08T18:15:07.666Z,100227.27
2018-09-08T18:17:35.203Z,100224.03
2018-09-08T18:20:03.105Z,100226.55
2018-09-08T18:22:30.670Z,100230.74
2018-09-08T18:24:58.216Z,100236.63
2018-09-08T18:27:26.806Z,100239.44
2018-09-08T18:29:56.785Z,100240.78
2018-09-08T18:32:24.355Z,100239.06
2018-09-08T18:34:52.361Z,100243.25
2018-09-08T18:37:19.940Z,100244.94
2018-09-08T18:39:48.043Z,100245.94
2018-09-08T18:42:16.797Z,100245.41
2018-09-08T18:44:44.368Z,100245.23
2018-09-08T18:47:12.719Z,100243.20
2018-09-08T18:49:40.611Z,100242.53
2018-09-08T18:52:08.175Z,100242.00
2018-09-08T18:54:35.733Z,100262.02
2018-09-08T18:57:04.725Z,100258.94
2018-09-08T18:59:33.245Z,100255.04
2018-09-08T19:02:02.913Z,100254.52
2018-09-08T19:04:31.760Z,100250.95
2018-09-08T19:07:02.345Z,100257.30
2018-09-08T19:09:31.202Z,100257.40
2018-09-08T19:12:00.878Z,100264.41
2018-09-08T19:14:33.440Z,100258.10
2018-09-08T19:17:01.290Z,100254.00
2018-09-08T19:19:29.912Z,100256.48
2018-09-08T19:21:58.051Z,100251.91
2018-09-08T19:24:31.390Z,100264.63
2018-09-08T19:27:02.299Z,100266.95
2018-09-08T19:29:34.966Z,100265.42
2018-09-08T19:32:08.224Z,100271.42
2018-09-08T19:34:36.207Z,100274.63
2018-09-08T19:37:03.740Z,100268.39
2018-09-08T19:39:31.292Z,100268.39
2018-09-08T19:42:00.433Z,100270.59
2018-09-08T19:44:27.972Z,100265.88
2018-09-08T19:47:01.076Z,100266.31
2018-09-08T19:52:02.213Z,100259.16
2018-09-08T19:54:30.770Z,100258.63
2018-09-08T19:57:05.033Z,100251.56
2018-09-08T19:59:33.156Z,100257.94
2018-09-08T20:02:01.607Z,100253.36
2018-09-08T20:04:29.626Z,100252.82
2018-09-08T20:06:58.028Z,100256.17
2018-09-08T20:09:27.596Z,100257.31
2018-09-08T20:11:56.270Z,100267.73
2018-09-08T20:14:23.798Z,100271.22
2018-09-08T20:16:53.117Z,100261.12
2018-09-08T20:19:21.500Z,100266.16
2018-09-08T20:21:50.563Z,100271.16
2018-09-08T20:24:21.994Z,100271.81
2018-09-08T20:26:51.257Z,100274.16
2018-09-08T20:29:19.647Z,100268.92
2018-09-08T20:31:51.433Z,100268.09
2018-09-08T20:34:19.526Z,100271.27
2018-09-08T20:36:47.702Z,100265.41
2018-09-08T20:39:21.450Z,100273.47
2018-09-08T20:41:49.411Z,100262.72
2018-09-08T20:44:18.487Z,100268.09
2018-09-08T20:46:47.328Z,100265.61
2018-09-08T20:49:15.300Z,100263.41
2018-09-08T20:51:44.404Z,100263.75
2018-09-08T20:54:18.188Z,100262.75
2018-09-08T20:56:46.408Z,100271.67
2018-09-08T20:59:15.560Z,100269.33
2018-09-08T21:01:44.855Z,100272.22
2018-09-08T21:04:14.102Z,100270.73
2018-09-08T21:06:43.195Z,100267.87
2018-09-08T21:09:12.207Z,100264.84
2018-09-08T21:11:40.120Z,100273.05
2018-09-08T21:14:08.668Z,100271.88
2018-09-08T21:16:37.658Z,100272.02
2018-09-08T21:19:07.106Z,100270.47
2018-09-08T21:21:37.236Z,100264.41
2018-09-08T21:24:04.786Z,100266.75
2018-09-08T21:26:32.803Z,100276.41
2018-09-08T21:29:00.488Z,100277.72
2018-09-08T21:31:28.623Z,100279.52
2018-09-08T21:33:56.511Z,100280.59
2018-09-08T21:36:24.087Z,100283.73
2018-09-08T21:38:51.646Z,100286.04
2018-09-08T21:41:19.556Z,100282.80
2018-09-08T21:43:48.064Z,100287.66
2018-09-08T21:46:16.339Z,100280.73
2018-09-08T21:48:45.310Z,100290.48
2018-09-08T21:51:13.655Z,100281.73
2018-09-08T21:53:43.477Z,100296.16
2018-09-08T21:56:11.432Z,100292.65
2018-09-08T21:58:39.986Z,100292.45
2018-09-08T22:01:12.645Z,100295.13
2018-09-08T22:03:46.068Z,100286.73
2018-09-08T22:06:13.630Z,100295.61
2018-09-08T22:08:41.612Z,100297.09
2018-09-08T22:11:10.570Z,100285.66
2018-09-08T22:13:42.278Z,100287.52
2018-09-08T22:16:10.103Z,100281.59
2018-09-08T22:18:37.648Z,100283.21
2018-09-08T22:21:07.777Z,100285.55
2018-09-08T22:23:36.992Z,100279.28
2018-09-08T22:26:05.698Z,100275.05
2018-09-08T22:28:35.253Z,100276.69
2018-09-08T22:31:04.406Z,100274.28
2018-09-08T22:33:32.762Z,100268.73
2018-09-08T22:36:00.573Z,100274.89
2018-09-08T22:38:29.646Z,100274.17
2018-09-08T22:40:58.138Z,100275.30
2018-09-08T22:43:25.706Z,100276.47
2018-09-08T22:45:57.322Z,100278.59
2018-09-08T22:48:24.851Z,100281.41
2018-09-08T22:50:53.782Z,100271.16
2018-09-08T22:53:24.099Z,100277.04
2018-09-08T22:55:51.682Z,100282.75
2018-09-08T22:58:19.255Z,100279.86
2018-09-08T23:00:47.459Z,100285.53
2018-09-08T23:03:15.836Z,100280.59
2018-09-08T23:05:43.375Z,100280.31
2018-09-08T23:08:13.826Z,100280.19
2018-09-08T23:10:43.831Z,100279.67
2018-09-08T23:13:12.449Z,100289.80
2018-09-08T23:15:43.251Z,100288.02
2018-09-08T23:18:11.760Z,100278.42
2018-09-08T23:20:39.307Z,100281.97
2018-09-08T23:23:09.676Z,100273.05
2018-09-08T23:25:37.599Z,100272.19
2018-09-08T23:28:09.604Z,100284.27
2018-09-08T23:30:37.446Z,100285.47
2018-09-08T23:33:04.963Z,100277.77
2018-09-08T23:35:32.486Z,100280.54
2018-09-08T23:38:00.321Z,100279.41
2018-09-08T23:40:27.898Z,100282.14
2018-09-08T23:42:55.460Z,100282.36
2018-09-08T23:45:23.430Z,100283.57
2018-09-08T23:47:51.240Z,100289.84
2018-09-08T23:50:18.834Z,100288.23
2018-09-08T23:52:46.834Z,100291.83
2018-09-08T23:55:15.250Z,100279.48
2018-09-08T23:57:43.120Z,100280.05
